Hovedside
METAR-TAF:

METAR-TAF

Lufthavner :

Topcliffe, England

breddegrad: 54-12N, lengdegrad: 001-23W, høyde over havet: 28 m

Gjeldene værobservasjon

Denne rapporten ble laget for 38 minutter siden, klokken 00:50 UTC
Vind 15 kt fra Sør-sørøst
Temperatur 9°C
Luftfuktighet 100%
Trykk 983 hPa
Sikt 10 km eller mer
regn

METAR: EGXZ 290050Z AUTO 15015KT 9999 RA BKN018/// SCT027/// 09/09 Q0983

Tid: 01:28 (01:28 UTC)


TAF: fraværende

Værobservasjoner og værvarsel for over 4000 flyplasser (METAR- og TAF-rapporter).

Tilgjengelige stasjoner er representert av de røde og gule prikkene på kartet.

Hold musepekeren over prikken for å se navnet på stasjonen.

Klikk så for å se værobservasjoner og -varsler.

For å forandre kartet kan du klikke på den grønne knappen med svart kryss for å zoome inn, på den grønne knappen med strek for å zoome ut, eller på de grønne pilene for å se tilstøtende kart.


METAR-TAF: